Time;durP1;ratioP1;P1;durP2;ratioP2;P2;SDS_P1;SDS_P2;PMS_P1;PMS_P2;Temp;Humidity;BMP_temperature;BMP_pressure;BME280_temperature;BME280_humidity;BME280_pressure;Samples;Min_cycle;Max_cycle;Signal;HPM_P1;HPM_P2
2023/09/22 00:01:00;;;;;;;9.77;5.80;;;;;;;19.70;97.28;95235.66;5050144;28;20303;-75
2023/09/22 00:03:27;;;;;;;13.57;6.00;;;;;;;19.83;95.66;95227.28;5032016;28;20242;-75
2023/09/22 00:05:52;;;;;;;13.37;5.70;;;;;;;19.81;97.19;95245.31;5038673;28;20237;-75
2023/09/22 00:08:18;;;;;;;12.23;6.00;;;;;;;19.80;96.60;95249.06;5052016;28;20220;-75
2023/09/22 00:10:45;;;;;;;12.13;5.83;;;;;;;19.87;94.92;95234.50;5060834;28;20225;-76
2023/09/22 00:13:10;;;;;;;11.33;6.00;;;;;;;19.71;97.35;95240.69;5035246;28;20224;-76
2023/09/22 00:15:36;;;;;;;13.27;6.00;;;;;;;19.47;100.00;95226.06;5055074;28;20235;-76
2023/09/22 00:18:01;;;;;;;14.73;6.47;;;;;;;19.36;100.00;95250.88;5043523;28;20237;-77
2023/09/22 00:20:27;;;;;;;14.00;6.63;;;;;;;19.02;100.00;95233.38;5066244;28;20232;-75
2023/09/22 00:22:52;;;;;;;14.67;6.60;;;;;;;18.94;100.00;95252.41;5061524;28;20751;-75
2023/09/22 00:25:18;;;;;;;18.27;6.47;;;;;;;18.93;100.00;95245.47;5045543;28;20264;-75
2023/09/22 00:27:43;;;;;;;14.23;6.40;;;;;;;18.90;100.00;95252.06;5055331;28;20274;-75
2023/09/22 00:30:09;;;;;;;11.20;6.70;;;;;;;18.99;100.00;95265.72;5038908;28;20237;-75
2023/09/22 00:32:35;;;;;;;17.33;6.60;;;;;;;19.13;100.00;95243.91;5064835;28;20240;-75
2023/09/22 00:35:01;;;;;;;13.50;6.67;;;;;;;19.12;100.00;95230.88;5031729;28;20220;-75
2023/09/22 00:37:28;;;;;;;16.73;6.87;;;;;;;19.10;100.00;95235.63;5067556;28;20618;-75
2023/09/22 00:39:54;;;;;;;14.20;6.63;;;;;;;18.73;100.00;95235.34;5033980;28;20617;-74
2023/09/22 00:42:19;;;;;;;14.93;6.80;;;;;;;18.69;100.00;95253.59;5066294;28;20223;-75
2023/09/22 00:44:45;;;;;;;13.93;6.87;;;;;;;18.85;100.00;95257.28;5050341;28;20308;-75
2023/09/22 00:47:14;;;;;;;12.47;6.80;;;;;;;18.81;100.00;95270.25;5046358;28;20708;-75
2023/09/22 00:49:40;;;;;;;11.43;6.40;;;;;;;18.87;100.00;95275.63;5050647;28;20312;-75
2023/09/22 00:52:06;;;;;;;12.50;6.50;;;;;;;18.89;100.00;95244.34;5048068;28;20213;-75
2023/09/22 00:54:31;;;;;;;14.77;6.77;;;;;;;18.94;100.00;95165.63;5051256;28;20242;-75
2023/09/22 00:56:57;;;;;;;15.50;7.40;;;;;;;19.05;100.00;95170.03;5072850;28;20601;-75
2023/09/22 00:59:23;;;;;;;14.80;6.83;;;;;;;19.12;100.00;95202.50;5066430;28;20237;-76
2023/09/22 01:01:48;;;;;;;12.50;6.70;;;;;;;19.11;100.00;95198.22;5060739;28;20328;-75
2023/09/22 01:04:14;;;;;;;12.00;6.50;;;;;;;18.99;100.00;95207.34;5072125;28;20712;-75
2023/09/22 01:06:39;;;;;;;14.13;6.13;;;;;;;18.91;100.00;95231.66;5067086;28;20252;-75
2023/09/22 01:09:11;;;;;;;12.17;6.20;;;;;;;18.86;100.00;95231.56;5053010;28;20236;-75
2023/09/22 01:11:36;;;;;;;12.50;6.30;;;;;;;18.75;100.00;95217.34;5073944;28;20310;-75
2023/09/22 01:14:02;;;;;;;14.10;6.80;;;;;;;18.81;100.00;95209.25;5041663;28;20248;-74
2023/09/22 01:16:29;;;;;;;15.87;6.63;;;;;;;18.84;100.00;95213.25;5049120;28;20256;-75
2023/09/22 01:18:55;;;;;;;13.77;6.50;;;;;;;18.45;100.00;95212.34;5038322;28;20228;-75
2023/09/22 01:21:32;;;;;;;10.50;6.13;;;;;;;18.29;100.00;95205.22;5040249;28;20282;-74
2023/09/22 01:23:58;;;;;;;10.93;6.60;;;;;;;18.50;100.00;95212.47;5067927;28;20216;-74
2023/09/22 01:26:23;;;;;;;12.10;6.57;;;;;;;18.71;100.00;95217.03;5050513;28;20224;-74
2023/09/22 01:28:49;;;;;;;13.53;6.40;;;;;;;18.76;100.00;95219.78;5050561;28;20322;-73
2023/09/22 01:31:15;;;;;;;13.97;6.67;;;;;;;18.89;100.00;95223.91;5064608;28;20224;-74
2023/09/22 01:33:41;;;;;;;13.13;6.40;;;;;;;18.96;100.00;95224.56;5052996;28;20704;-74
2023/09/22 01:36:06;;;;;;;14.43;6.53;;;;;;;18.98;100.00;95226.97;5067957;28;20232;-74
2023/09/22 01:38:32;;;;;;;15.77;6.57;;;;;;;19.02;100.00;95202.38;5068676;28;20233;-74
2023/09/22 01:40:58;;;;;;;14.43;6.70;;;;;;;19.06;100.00;95192.06;5069946;28;20884;-75
2023/09/22 01:43:24;;;;;;;12.10;6.40;;;;;;;18.78;100.00;95196.47;5058158;28;20257;-74
2023/09/22 01:45:49;;;;;;;13.63;6.87;;;;;;;18.70;100.00;95226.03;5047458;28;20599;-74
2023/09/22 01:48:15;;;;;;;13.80;6.67;;;;;;;18.81;100.00;95229.66;5069366;28;21305;-74
2023/09/22 01:50:41;;;;;;;14.13;6.60;;;;;;;18.92;100.00;95207.53;5075557;28;20225;-74
2023/09/22 01:53:10;;;;;;;16.33;6.77;;;;;;;18.66;100.00;95190.44;5063176;28;20225;-74
2023/09/22 01:55:36;;;;;;;14.43;7.00;;;;;;;18.66;100.00;95173.72;5048647;28;20702;-74
2023/09/22 01:58:04;;;;;;;13.43;7.07;;;;;;;18.62;100.00;95152.22;5069015;28;20229;-74
2023/09/22 02:00:30;;;;;;;15.63;7.17;;;;;;;18.61;100.00;95185.06;5047505;28;20632;-74
2023/09/22 02:02:56;;;;;;;13.33;6.97;;;;;;;18.33;100.00;95192.25;5059611;28;20550;-74
2023/09/22 02:05:21;;;;;;;14.87;7.27;;;;;;;18.38;100.00;95201.13;5066602;28;20769;-74
2023/09/22 02:07:47;;;;;;;14.87;6.90;;;;;;;18.54;100.00;95199.53;5065559;28;20233;-73
2023/09/22 02:10:13;;;;;;;15.87;7.17;;;;;;;18.61;100.00;95200.16;5051120;28;20314;-73
2023/09/22 02:12:40;;;;;;;16.17;6.73;;;;;;;18.63;100.00;95198.88;5069525;28;20232;-74
2023/09/22 02:15:09;;;;;;;15.30;6.83;;;;;;;18.33;100.00;95182.47;5053451;28;20287;-75
2023/09/22 02:17:38;;;;;;;13.17;6.73;;;;;;;18.35;100.00;95183.03;5041547;28;20224;-75
2023/09/22 02:20:12;;;;;;;13.67;6.90;;;;;;;18.32;100.00;95178.19;5058665;28;20281;-73
2023/09/22 02:22:37;;;;;;;13.70;7.03;;;;;;;18.31;100.00;95189.88;5052552;28;20760;-73
2023/09/22 02:25:03;;;;;;;14.43;6.80;;;;;;;18.19;100.00;95186.47;5069188;28;20239;-74
2023/09/22 02:27:29;;;;;;;13.17;6.90;;;;;;;18.42;100.00;95175.72;5058736;28;20229;-74
2023/09/22 02:29:54;;;;;;;15.60;6.97;;;;;;;18.40;100.00;95183.13;5051567;28;20706;-74
2023/09/22 02:32:20;;;;;;;12.17;6.80;;;;;;;18.25;100.00;95180.22;5055354;28;20231;-73
2023/09/22 02:34:45;;;;;;;13.57;6.80;;;;;;;18.21;100.00;95179.09;5070506;28;20243;-73
2023/09/22 02:37:11;;;;;;;14.90;7.70;;;;;;;18.23;100.00;95190.25;5038436;28;20217;-73
2023/09/22 02:39:37;;;;;;;14.60;6.70;;;;;;;18.39;100.00;95189.44;5040655;28;20228;-74
2023/09/22 02:42:02;;;;;;;14.03;7.20;;;;;;;18.20;100.00;95182.78;5034357;28;20385;-74
2023/09/22 02:44:29;;;;;;;13.70;7.00;;;;;;;18.23;100.00;95190.25;5066026;28;20239;-73
2023/09/22 02:46:55;;;;;;;16.57;6.93;;;;;;;18.21;100.00;95191.53;5051202;28;20274;-74
2023/09/22 02:49:20;;;;;;;16.47;7.27;;;;;;;18.17;100.00;95189.34;5035131;28;20293;-74
2023/09/22 02:51:46;;;;;;;13.27;6.90;;;;;;;18.08;100.00;95200.59;5037841;28;20232;-74
2023/09/22 02:54:13;;;;;;;14.60;7.47;;;;;;;18.16;100.00;95203.66;5033274;28;20237;-74
2023/09/22 02:56:39;;;;;;;14.50;7.43;;;;;;;18.17;100.00;95209.78;5052095;28;20321;-74
2023/09/22 02:59:05;;;;;;;12.37;7.23;;;;;;;17.99;100.00;95202.81;5052448;28;20632;-73
2023/09/22 03:01:30;;;;;;;14.80;7.60;;;;;;;18.03;100.00;95203.94;5036922;28;20632;-74
2023/09/22 03:03:56;;;;;;;12.93;6.97;;;;;;;18.08;100.00;95208.53;5071414;28;20622;-74
2023/09/22 03:06:21;;;;;;;12.50;7.13;;;;;;;18.12;100.00;95212.31;5051246;28;20229;-74
2023/09/22 03:08:47;;;;;;;13.73;6.90;;;;;;;18.27;100.00;95204.63;5039945;28;20705;-74
2023/09/22 03:11:12;;;;;;;12.90;7.30;;;;;;;18.13;100.00;95212.06;5074921;28;20239;-75
2023/09/22 03:13:38;;;;;;;13.23;7.43;;;;;;;18.20;100.00;95217.22;5039509;28;20686;-74
2023/09/22 03:16:04;;;;;;;14.00;7.30;;;;;;;18.27;100.00;95220.50;5050933;28;20235;-74
2023/09/22 03:18:30;;;;;;;14.17;7.03;;;;;;;18.17;100.00;95209.78;5037264;28;20232;-75
2023/09/22 03:20:56;;;;;;;14.33;7.43;;;;;;;18.24;100.00;95214.91;5028967;28;20320;-74
2023/09/22 03:23:23;;;;;;;12.07;6.80;;;;;;;18.31;100.00;95216.38;5047136;28;20307;-74
2023/09/22 03:25:50;;;;;;;14.73;7.53;;;;;;;18.34;100.00;95209.78;5055198;28;20276;-74
2023/09/22 03:28:16;;;;;;;27.50;15.07;;;;;;;18.27;100.00;95207.28;5048991;28;20236;-76
2023/09/22 03:30:41;;;;;;;34.03;22.00;;;;;;;18.14;100.00;95204.94;5033959;28;20949;-76
2023/09/22 03:33:07;;;;;;;29.63;19.90;;;;;;;18.13;100.00;95214.72;5066767;28;20253;-76
2023/09/22 03:35:32;;;;;;;30.57;20.17;;;;;;;18.05;100.00;95209.03;5048250;28;21024;-76
2023/09/22 03:37:58;;;;;;;30.23;18.47;;;;;;;17.73;100.00;95206.06;5045691;28;20237;-76
2023/09/22 03:40:32;;;;;;;30.67;19.33;;;;;;;17.48;100.00;95214.28;5069964;28;20247;-76
2023/09/22 03:42:59;;;;;;;30.57;19.13;;;;;;;17.46;100.00;95200.47;5041054;28;20667;-76
2023/09/22 03:45:24;;;;;;;26.77;16.43;;;;;;;17.54;100.00;95206.47;5069469;28;20337;-76
2023/09/22 03:47:50;;;;;;;21.67;12.80;;;;;;;17.69;100.00;95212.06;5066017;28;20691;-76
2023/09/22 03:50:15;;;;;;;18.87;11.30;;;;;;;17.69;100.00;95196.19;5066969;28;20224;-76
2023/09/22 03:52:41;;;;;;;18.63;10.37;;;;;;;17.62;100.00;95201.63;5073669;28;20234;-77
2023/09/22 03:55:08;;;;;;;18.77;9.20;;;;;;;17.75;100.00;95203.97;5047691;28;20228;-76
2023/09/22 03:57:33;;;;;;;16.97;8.67;;;;;;;17.64;100.00;95204.03;5028408;28;20224;-76
2023/09/22 03:59:59;;;;;;;16.93;8.87;;;;;;;17.72;100.00;95201.00;5048576;28;20250;-77
2023/09/22 04:02:27;;;;;;;15.17;8.70;;;;;;;17.77;100.00;95201.09;5030336;28;20308;-77
2023/09/22 04:04:54;;;;;;;14.20;8.37;;;;;;;17.74;100.00;95209.50;5051748;28;20282;-77
2023/09/22 04:07:19;;;;;;;18.10;8.83;;;;;;;17.61;100.00;95215.06;5053600;28;20296;-76
2023/09/22 04:09:45;;;;;;;13.87;8.57;;;;;;;17.63;100.00;95208.50;5068943;28;20221;-76
2023/09/22 04:12:11;;;;;;;15.20;9.00;;;;;;;17.76;100.00;95204.78;5060773;28;20230;-77
2023/09/22 04:14:37;;;;;;;15.10;8.13;;;;;;;17.58;100.00;95202.34;5052757;28;20235;-76
2023/09/22 04:17:03;;;;;;;14.93;8.17;;;;;;;17.62;100.00;95209.56;5065630;28;20272;-77
2023/09/22 04:19:33;;;;;;;16.47;8.40;;;;;;;17.68;100.00;95205.97;5049991;28;20233;-76
2023/09/22 04:22:00;;;;;;;18.27;8.17;;;;;;;17.88;100.00;95208.19;5030568;28;20234;-76
2023/09/22 04:24:31;;;;;;;16.63;8.30;;;;;;;17.95;100.00;95211.50;5061227;28;20249;-77
2023/09/22 04:27:00;;;;;;;14.27;8.20;;;;;;;17.73;100.00;95218.47;5050498;28;20220;-76
2023/09/22 04:29:26;;;;;;;16.50;9.00;;;;;;;17.60;100.00;95214.25;5055358;28;20264;-77
2023/09/22 04:31:52;;;;;;;17.50;8.43;;;;;;;17.60;100.00;95213.47;5037109;28;20232;-77
2023/09/22 04:34:19;;;;;;;17.03;7.90;;;;;;;17.64;100.00;95219.91;5048317;28;20254;-77
2023/09/22 04:36:45;;;;;;;17.73;8.13;;;;;;;17.58;100.00;95216.34;5049448;28;20720;-77
2023/09/22 04:39:10;;;;;;;14.97;8.23;;;;;;;17.60;100.00;95218.78;5050828;28;20354;-77
2023/09/22 04:41:36;;;;;;;14.20;8.27;;;;;;;17.62;100.00;95219.34;5047871;28;20863;-76
2023/09/22 04:44:02;;;;;;;14.90;7.83;;;;;;;17.62;100.00;95217.50;5052037;28;20630;-77
2023/09/22 04:46:27;;;;;;;17.87;7.70;;;;;;;17.59;100.00;95222.44;5059694;28;20282;-76
2023/09/22 04:48:55;;;;;;;14.93;7.87;;;;;;;17.55;100.00;95218.69;5055231;28;20237;-76
2023/09/22 04:51:21;;;;;;;14.93;8.07;;;;;;;17.61;100.00;95215.06;5040569;28;20226;-76
2023/09/22 04:53:47;;;;;;;17.07;7.70;;;;;;;17.56;100.00;95217.63;5051503;28;20238;-76
2023/09/22 04:56:12;;;;;;;13.13;7.97;;;;;;;17.63;100.00;95216.44;5063536;28;20308;-77
2023/09/22 04:58:38;;;;;;;16.20;7.70;;;;;;;17.76;100.00;95224.13;5052999;28;20237;-76
2023/09/22 05:01:03;;;;;;;17.00;7.87;;;;;;;17.69;100.00;95218.16;5067387;28;20241;-77
2023/09/22 05:03:29;;;;;;;14.83;7.50;;;;;;;17.67;100.00;95212.31;5063838;28;20638;-77
2023/09/22 05:05:55;;;;;;;15.33;7.90;;;;;;;17.74;100.00;95220.91;5068552;28;20307;-76
2023/09/22 05:08:21;;;;;;;15.73;7.50;;;;;;;17.80;100.00;95230.53;5053352;28;20225;-77
2023/09/22 05:10:47;;;;;;;13.77;7.70;;;;;;;17.73;100.00;95234.38;5052475;28;20232;-77
2023/09/22 05:13:15;;;;;;;17.23;8.23;;;;;;;17.82;100.00;95230.31;5065416;28;20255;-77
2023/09/22 05:15:43;;;;;;;15.80;8.30;;;;;;;17.92;100.00;95228.66;5066908;28;20324;-77
2023/09/22 05:18:13;;;;;;;17.70;8.03;;;;;;;17.94;100.00;95233.72;5067303;28;20906;-77
2023/09/22 05:20:40;;;;;;;15.73;8.50;;;;;;;17.93;100.00;95240.06;5035209;28;20705;-77
2023/09/22 05:23:06;;;;;;;17.03;8.20;;;;;;;17.99;100.00;95234.63;5046733;28;20220;-77
2023/09/22 05:25:32;;;;;;;17.13;7.90;;;;;;;17.89;100.00;95237.06;5051113;28;20244;-77
2023/09/22 05:27:58;;;;;;;15.83;8.20;;;;;;;17.92;100.00;95241.91;5053740;28;20253;-77
2023/09/22 05:30:23;;;;;;;17.20;8.03;;;;;;;18.05;100.00;95243.47;5053491;28;20232;-77
2023/09/22 05:32:49;;;;;;;14.23;8.30;;;;;;;18.04;100.00;95247.13;5042655;28;20225;-77
2023/09/22 05:35:15;;;;;;;20.87;8.20;;;;;;;18.15;100.00;95262.97;5070678;28;20212;-77
2023/09/22 05:37:42;;;;;;;15.83;8.37;;;;;;;18.26;100.00;95260.53;5051245;28;20326;-77
2023/09/22 05:40:12;;;;;;;17.90;8.37;;;;;;;18.02;100.00;95265.94;5045934;28;20241;-77
2023/09/22 05:42:38;;;;;;;19.57;8.57;;;;;;;18.20;100.00;95256.19;5049383;28;20226;-77
2023/09/22 05:45:05;;;;;;;19.50;8.63;;;;;;;18.21;100.00;95258.59;5034891;28;20301;-77
2023/09/22 05:47:30;;;;;;;16.73;8.50;;;;;;;18.24;100.00;95262.59;5036903;28;20289;-77
2023/09/22 05:49:56;;;;;;;17.67;8.63;;;;;;;18.29;100.00;95262.69;5068770;28;20248;-77
2023/09/22 05:52:21;;;;;;;18.03;8.30;;;;;;;18.22;100.00;95270.00;5062330;28;20220;-77
2023/09/22 05:54:50;;;;;;;17.77;8.93;;;;;;;18.30;100.00;95266.94;5067704;28;20233;-77
2023/09/22 05:57:16;;;;;;;18.00;8.90;;;;;;;18.40;100.00;95261.81;5055103;28;20278;-77
2023/09/22 05:59:42;;;;;;;20.03;8.43;;;;;;;18.35;100.00;95261.72;5034143;28;20233;-77
2023/09/22 06:02:07;;;;;;;17.87;8.57;;;;;;;18.26;100.00;95261.31;5033814;28;20227;-77
2023/09/22 06:04:33;;;;;;;20.67;8.63;;;;;;;18.25;100.00;95261.53;5029827;28;20228;-77
2023/09/22 06:06:58;;;;;;;18.07;7.93;;;;;;;18.30;100.00;95267.75;5061395;28;20249;-77
2023/09/22 06:09:24;;;;;;;16.97;8.70;;;;;;;18.23;100.00;95256.50;5058435;28;20918;-77
2023/09/22 06:11:50;;;;;;;16.33;8.30;;;;;;;18.45;100.00;95264.56;5059760;28;20230;-77
2023/09/22 06:14:15;;;;;;;18.83;8.47;;;;;;;18.41;100.00;95266.91;5051416;28;20243;-77
2023/09/22 06:16:41;;;;;;;14.53;8.30;;;;;;;18.46;100.00;95271.50;5072294;28;20259;-77
2023/09/22 06:19:10;;;;;;;21.33;8.40;;;;;;;18.42;100.00;95271.13;5052920;28;20224;-77
2023/09/22 06:21:37;;;;;;;20.20;8.53;;;;;;;18.46;100.00;95271.50;5061928;28;20257;-77
2023/09/22 06:24:06;;;;;;;23.93;9.10;;;;;;;18.64;100.00;95280.03;5075801;28;20231;-77
2023/09/22 06:26:32;;;;;;;17.23;8.80;;;;;;;18.67;100.00;95274.25;5061229;28;20228;-77
2023/09/22 06:28:57;;;;;;;19.13;8.90;;;;;;;18.69;100.00;95285.44;5052273;28;20236;-77
2023/09/22 06:31:23;;;;;;;19.33;7.80;;;;;;;18.73;100.00;95291.84;5068392;28;20746;-77
2023/09/22 06:33:49;;;;;;;17.07;7.80;;;;;;;18.81;100.00;95280.03;5070780;28;20233;-77
2023/09/22 06:36:15;;;;;;;21.70;7.73;;;;;;;18.89;100.00;95284.16;5069582;28;20223;-77
2023/09/22 06:38:40;;;;;;;16.70;7.13;;;;;;;18.99;100.00;95290.41;5041603;28;20244;-77
2023/09/22 06:41:06;;;;;;;20.77;7.53;;;;;;;18.96;100.00;95282.13;5071695;28;20225;-78
2023/09/22 06:43:33;;;;;;;22.37;7.63;;;;;;;18.98;100.00;95286.16;5063211;28;20236;-77
2023/09/22 06:46:02;;;;;;;19.67;7.70;;;;;;;19.09;100.00;95289.75;5042724;28;20244;-78
2023/09/22 06:48:29;;;;;;;19.63;7.77;;;;;;;19.23;100.00;95291.00;5042410;28;20243;-77
2023/09/22 06:50:57;;;;;;;18.20;7.67;;;;;;;19.29;100.00;95292.69;5053590;28;20281;-77
2023/09/22 06:53:23;;;;;;;17.30;8.00;;;;;;;19.33;100.00;95291.97;5057786;28;20233;-77
2023/09/22 06:55:49;;;;;;;21.43;7.60;;;;;;;19.42;100.00;95309.13;5032846;28;20227;-77
2023/09/22 06:58:15;;;;;;;21.77;8.00;;;;;;;19.52;100.00;95310.28;5071953;28;20243;-78
2023/09/22 07:00:40;;;;;;;13.60;7.07;;;;;;;19.64;100.00;95308.31;5052431;28;20622;-77
2023/09/22 07:03:06;;;;;;;22.20;8.13;;;;;;;19.56;100.00;95300.81;5040148;28;20267;-77
2023/09/22 07:05:32;;;;;;;22.63;8.57;;;;;;;19.58;100.00;95299.50;5066017;28;20228;-77
2023/09/22 07:07:58;;;;;;;21.63;8.53;;;;;;;19.61;100.00;95300.88;5038178;28;20229;-78
2023/09/22 07:10:24;;;;;;;17.90;8.00;;;;;;;19.71;100.00;95298.31;5049803;28;20295;-78
2023/09/22 07:12:50;;;;;;;20.23;7.67;;;;;;;19.84;100.00;95306.75;5043479;28;20243;-77
2023/09/22 07:15:16;;;;;;;19.80;7.57;;;;;;;19.82;100.00;95302.75;5051211;28;20248;-77
2023/09/22 07:17:44;;;;;;;15.90;6.77;;;;;;;19.85;98.47;95303.03;5053320;28;20229;-81
2023/09/22 07:20:14;;;;;;;17.60;7.30;;;;;;;19.96;97.82;95309.28;5039084;28;20247;-80
2023/09/22 07:22:42;;;;;;;15.63;7.23;;;;;;;20.08;97.12;95315.28;5045932;28;20231;-80
2023/09/22 07:25:08;;;;;;;18.83;7.13;;;;;;;20.14;97.80;95312.41;5070389;28;20241;-80
2023/09/22 07:27:36;;;;;;;17.20;7.07;;;;;;;20.11;96.72;95306.78;5067398;28;20229;-80
2023/09/22 07:30:02;;;;;;;18.93;6.73;;;;;;;20.25;95.35;95305.41;5054755;28;20253;-80
2023/09/22 07:32:27;;;;;;;15.83;6.20;;;;;;;20.40;95.42;95310.84;5054416;28;20612;-80
2023/09/22 07:34:54;;;;;;;14.93;6.30;;;;;;;20.49;93.15;95317.31;5088152;28;20270;-80
2023/09/22 07:37:19;;;;;;;18.90;6.60;;;;;;;20.53;94.36;95313.13;5065913;28;20710;-81
2023/09/22 07:39:48;;;;;;;18.00;6.60;;;;;;;20.53;95.65;95309.66;5073212;28;20240;-80
2023/09/22 07:42:15;;;;;;;16.60;5.83;;;;;;;20.61;90.80;95310.00;5058105;28;20773;-80
2023/09/22 07:44:40;;;;;;;14.83;6.10;;;;;;;20.73;93.68;95318.63;5068308;28;20239;-80
2023/09/22 07:47:15;;;;;;;11.83;6.00;;;;;;;20.78;93.50;95305.38;5059225;28;20227;-78
2023/09/22 07:49:42;;;;;;;14.53;6.00;;;;;;;20.85;90.04;95312.34;5056760;28;20259;-77
2023/09/22 07:52:10;;;;;;;14.93;6.00;;;;;;;20.82;88.04;95313.66;5054465;28;20229;-77
2023/09/22 07:54:39;;;;;;;14.57;6.00;;;;;;;20.82;90.32;95322.41;5063732;28;20240;-76
2023/09/22 07:57:04;;;;;;;13.80;5.70;;;;;;;20.89;89.90;95306.25;5072973;28;20774;-77
2023/09/22 07:59:30;;;;;;;11.67;6.07;;;;;;;21.02;89.21;95303.16;5051108;28;20319;-77
2023/09/22 08:01:59;;;;;;;11.13;5.90;;;;;;;21.10;89.92;95301.91;5050978;28;20245;-77
2023/09/22 08:04:24;;;;;;;14.63;5.83;;;;;;;21.17;89.48;95305.97;5036334;28;20243;-76
2023/09/22 08:06:50;;;;;;;14.10;5.70;;;;;;;21.30;88.52;95307.41;5070463;28;20233;-77
2023/09/22 08:09:15;;;;;;;15.97;6.20;;;;;;;21.36;89.27;95314.34;5028850;28;20818;-77
2023/09/22 08:11:41;;;;;;;22.03;6.47;;;;;;;21.40;90.40;95304.78;5041199;28;20232;-76
2023/09/22 08:14:07;;;;;;;16.47;6.17;;;;;;;21.55;88.80;95309.41;5021734;28;20622;-76
2023/09/22 08:16:32;;;;;;;12.17;6.00;;;;;;;21.58;89.91;95296.38;5082879;28;20314;-77
2023/09/22 08:18:58;;;;;;;18.13;6.17;;;;;;;21.69;87.31;95291.88;5061735;28;20228;-76
2023/09/22 08:21:25;;;;;;;18.60;6.63;;;;;;;21.84;88.66;95297.28;5081913;28;20771;-76
2023/09/22 08:23:51;;;;;;;15.20;6.17;;;;;;;21.88;87.04;95298.41;5015588;28;20237;-77
2023/09/22 08:26:17;;;;;;;12.27;5.90;;;;;;;21.84;85.85;95297.28;5053019;28;20235;-76
2023/09/22 08:28:47;;;;;;;15.53;6.00;;;;;;;21.81;88.83;95301.28;5070898;28;20240;-76
2023/09/22 08:31:12;;;;;;;12.10;6.00;;;;;;;21.90;86.93;95290.97;5051367;28;20234;-76
2023/09/22 08:33:39;;;;;;;15.57;6.17;;;;;;;22.00;86.55;95296.31;5051730;28;20228;-77
2023/09/22 08:36:04;;;;;;;13.90;6.10;;;;;;;22.11;85.65;95295.31;5067476;28;20713;-76
2023/09/22 08:38:33;;;;;;;15.70;6.10;;;;;;;22.10;86.17;95289.16;5029995;28;20286;-76
2023/09/22 08:41:04;;;;;;;14.43;6.37;;;;;;;22.18;86.65;95285.19;5061348;28;20236;-77
2023/09/22 08:43:32;;;;;;;13.18;6.30;;;;;;;22.30;84.18;95285.75;5062062;28;20316;-77
2023/09/22 08:46:00;;;;;;;12.53;6.10;;;;;;;22.28;86.08;95279.09;5075136;28;20802;-77
2023/09/22 08:48:26;;;;;;;16.08;6.35;;;;;;;22.39;84.71;95286.84;5043133;28;20312;-77
2023/09/22 08:50:51;;;;;;;17.77;6.87;;;;;;;22.58;85.29;95279.13;5080468;28;20263;-77
2023/09/22 08:53:17;;;;;;;15.90;6.20;;;;;;;22.59;85.34;95272.75;5070587;28;20296;-77
2023/09/22 08:55:43;;;;;;;13.90;6.30;;;;;;;22.63;85.24;95263.16;5062429;28;20233;-77
2023/09/22 08:58:08;;;;;;;16.17;6.80;;;;;;;22.72;84.45;95262.34;5069139;28;20236;-76
2023/09/22 09:00:35;;;;;;;13.20;6.13;;;;;;;22.82;82.64;95266.09;5034832;28;20708;-76
2023/09/22 09:03:09;;;;;;;15.63;6.40;;;;;;;22.93;83.08;95259.69;5023844;28;20374;-77
2023/09/22 09:05:36;;;;;;;13.23;6.53;;;;;;;23.06;83.53;95257.28;5068231;28;20296;-76
2023/09/22 09:08:15;;;;;;;17.80;6.55;;;;;;;23.06;82.95;95248.47;5054079;28;21122;-76
2023/09/22 09:10:42;;;;;;;16.92;6.55;;;;;;;23.05;83.10;95253.00;5068272;28;20238;-77
2023/09/22 09:13:12;;;;;;;14.87;6.43;;;;;;;23.16;82.54;95243.13;5043799;28;20224;-76
2023/09/22 09:15:48;;;;;;;13.43;6.30;;;;;;;23.45;80.17;95241.47;5058896;28;20224;-77
2023/09/22 09:18:18;;;;;;;17.20;6.22;;;;;;;23.55;79.85;95233.41;5044408;28;20225;-76
2023/09/22 09:20:48;;;;;;;14.75;6.07;;;;;;;23.76;79.17;95240.31;5040862;28;20280;-76
2023/09/22 09:23:18;;;;;;;13.57;5.93;;;;;;;23.84;78.04;95231.69;5042464;28;20280;-76
2023/09/22 09:25:55;;;;;;;16.35;6.20;;;;;;;23.89;78.57;95226.34;5030211;28;20717;-76
2023/09/22 09:28:21;;;;;;;17.90;6.25;;;;;;;23.91;78.95;95229.53;5075397;28;20302;-76
2023/09/22 09:30:54;;;;;;;12.30;5.90;;;;;;;24.00;78.77;95227.88;5059952;28;20236;-76
2023/09/22 09:33:23;;;;;;;17.15;5.95;;;;;;;24.05;78.46;95219.00;5071066;28;20232;-75
2023/09/22 09:35:49;;;;;;;20.92;6.28;;;;;;;24.28;76.78;95218.41;5044577;28;20240;-76
2023/09/22 09:38:18;;;;;;;12.23;6.05;;;;;;;24.39;76.41;95213.75;5060806;28;20675;-76
2023/09/22 09:40:43;;;;;;;19.17;6.32;;;;;;;24.50;77.02;95207.28;5041410;28;20236;-76
2023/09/22 09:43:11;;;;;;;15.38;5.82;;;;;;;24.45;77.97;95212.66;5037381;28;20345;-77
2023/09/22 09:45:50;;;;;;;17.80;6.00;;;;;;;24.48;76.00;95206.75;5044169;28;20236;-73
2023/09/22 09:48:18;;;;;;;13.77;5.65;;;;;;;24.62;74.40;95210.41;5046969;28;20231;-76
2023/09/22 09:50:48;;;;;;;13.88;6.05;;;;;;;24.69;74.25;95198.25;5056249;28;20233;-76
2023/09/22 09:53:27;;;;;;;15.75;5.43;;;;;;;24.77;73.65;95195.03;5049941;28;20233;-76
2023/09/22 09:55:58;;;;;;;18.50;5.97;;;;;;;24.85;74.26;95204.31;5050275;28;20239;-76
2023/09/22 09:58:26;;;;;;;16.00;5.93;;;;;;;24.83;75.69;95198.47;5059850;28;20725;-76
2023/09/22 10:00:51;;;;;;;20.67;6.47;;;;;;;24.84;74.33;95200.03;5041533;28;20251;-78
2023/09/22 10:03:17;;;;;;;14.98;5.85;;;;;;;24.93;73.21;95195.69;5041562;28;20656;-76
2023/09/22 10:05:43;;;;;;;13.68;6.00;;;;;;;25.02;74.10;95195.88;5057139;28;20235;-76
2023/09/22 10:08:08;;;;;;;16.65;5.65;;;;;;;25.14;72.33;95201.66;5055560;28;20230;-76
2023/09/22 10:10:35;;;;;;;17.90;6.20;;;;;;;25.09;71.25;95196.34;5065610;28;20228;-77
2023/09/22 10:13:00;;;;;;;14.63;6.03;;;;;;;25.19;72.74;95207.75;5056411;28;21061;-76
2023/09/22 10:16:04;;;;;;;16.92;6.20;;;;;;;25.21;73.34;95200.22;5059941;28;20233;-76
2023/09/22 10:18:45;;;;;;;18.13;6.03;;;;;;;25.32;70.17;95184.81;5075813;28;20224;-76
2023/09/22 10:21:29;;;;;;;18.58;5.70;;;;;;;25.48;72.33;95197.03;5060423;28;20256;-77
2023/09/22 10:24:19;;;;;;;18.50;5.75;;;;;;;25.59;71.87;95187.78;5072633;28;20256;-76
2023/09/22 10:26:53;;;;;;;18.67;5.75;;;;;;;25.69;68.38;95181.50;5076116;28;20648;-76
2023/09/22 10:29:35;;;;;;;13.50;5.60;;;;;;;25.85;67.08;95180.19;5087628;28;20233;-76
2023/09/22 10:32:27;;;;;;;19.45;6.05;;;;;;;25.82;68.67;95178.88;5089357;28;20216;-76
2023/09/22 10:35:03;;;;;;;15.55;5.63;;;;;;;25.87;68.49;95184.19;5056704;28;20233;-76
2023/09/22 10:37:30;;;;;;;13.73;5.57;;;;;;;25.89;67.67;95176.66;5059970;28;20250;-76
2023/09/22 10:40:23;;;;;;;17.95;5.85;;;;;;;26.21;68.72;95175.16;5058141;28;20251;-76
2023/09/22 10:42:50;;;;;;;17.70;5.72;;;;;;;26.26;64.11;95175.91;5046194;28;20231;-76
2023/09/22 10:45:27;;;;;;;17.13;5.78;;;;;;;26.33;65.97;95170.97;5065657;28;20277;-76
2023/09/22 10:47:53;;;;;;;19.50;5.47;;;;;;;26.31;68.72;95172.34;5064893;28;20237;-77
2023/09/22 10:50:24;;;;;;;18.42;5.82;;;;;;;26.43;65.94;95161.94;5078228;28;20304;-76
2023/09/22 10:52:56;;;;;;;20.00;5.78;;;;;;;26.52;67.98;95155.63;5068546;28;20652;-76
2023/09/22 10:55:38;;;;;;;22.65;6.00;;;;;;;26.64;64.22;95153.28;5085722;28;20231;-76
2023/09/22 10:58:05;;;;;;;23.60;5.57;;;;;;;26.81;63.44;95150.06;5063854;28;20228;-76
2023/09/22 11:00:40;;;;;;;25.08;5.93;;;;;;;26.76;63.61;95138.59;5050750;28;20672;-76
2023/09/22 11:03:23;;;;;;;22.30;6.05;;;;;;;26.80;64.14;95145.00;5078409;28;20220;-76
2023/09/22 11:06:09;;;;;;;22.33;5.90;;;;;;;26.95;63.58;95148.19;5079427;28;20227;-76
2023/09/22 11:08:55;;;;;;;18.30;5.68;;;;;;;27.00;65.04;95142.72;5077947;28;20240;-74
2023/09/22 11:11:21;;;;;;;18.35;5.45;;;;;;;27.12;60.26;95136.88;5084179;28;20232;-76
2023/09/22 11:13:53;;;;;;;25.63;5.78;;;;;;;27.20;61.83;95141.56;5058923;28;20285;-76
2023/09/22 11:16:20;;;;;;;20.92;5.38;;;;;;;27.32;59.70;95137.28;5074804;28;20215;-76
2023/09/22 11:18:45;;;;;;;22.33;5.80;;;;;;;27.32;62.16;95131.13;5054085;28;20217;-76
2023/09/22 11:21:12;;;;;;;21.98;6.88;;;;;;;27.35;60.93;95133.19;5100654;28;20235;-76